sensor_id;sensor_type;location;lat;lon;timestamp;pressure;altitude;pressure_sealevel;temperature;humidity
84890;BME280;75153;52.222;5.160;2024-02-23T00:01:30;98587.13;;;6.04;80.26
84890;BME280;75153;52.222;5.160;2024-02-23T00:03:55;98587.31;;;6.08;80.16
84890;BME280;75153;52.222;5.160;2024-02-23T00:06:21;98587.31;;;6.08;79.89
84890;BME280;75153;52.222;5.160;2024-02-23T00:08:48;98586.75;;;6.11;80.38
84890;BME280;75153;52.222;5.160;2024-02-23T00:11:14;98600.59;;;6.25;79.83
84890;BME280;75153;52.222;5.160;2024-02-23T00:13:39;98597.97;;;6.25;79.33
84890;BME280;75153;52.222;5.160;2024-02-23T00:16:05;98616.41;;;6.20;78.22
84890;BME280;75153;52.222;5.160;2024-02-23T00:18:30;98599.53;;;6.26;78.19
84890;BME280;75153;52.222;5.160;2024-02-23T00:20:55;98619.22;;;6.38;78.49
84890;BME280;75153;52.222;5.160;2024-02-23T00:23:21;98622.69;;;6.33;77.76
84890;BME280;75153;52.222;5.160;2024-02-23T00:25:47;98620.66;;;6.44;77.94
84890;BME280;75153;52.222;5.160;2024-02-23T00:28:13;98612.22;;;6.47;78.46
84890;BME280;75153;52.222;5.160;2024-02-23T00:30:38;98622.31;;;6.40;77.99
84890;BME280;75153;52.222;5.160;2024-02-23T00:33:04;98628.69;;;6.47;77.68
84890;BME280;75153;52.222;5.160;2024-02-23T00:35:29;98624.13;;;6.53;77.51
84890;BME280;75153;52.222;5.160;2024-02-23T00:37:55;98628.88;;;6.51;77.63
84890;BME280;75153;52.222;5.160;2024-02-23T00:40:20;98623.28;;;6.44;77.22
84890;BME280;75153;52.222;5.160;2024-02-23T00:42:46;98627.94;;;6.47;77.79
84890;BME280;75153;52.222;5.160;2024-02-23T00:45:11;98633.91;;;6.61;77.32
84890;BME280;75153;52.222;5.160;2024-02-23T00:47:37;98633.66;;;6.35;77.77
84890;BME280;75153;52.222;5.160;2024-02-23T00:50:03;98639.47;;;6.46;78.39
84890;BME280;75153;52.222;5.160;2024-02-23T00:52:29;98638.97;;;6.44;78.70
84890;BME280;75153;52.222;5.160;2024-02-23T00:54:54;98645.47;;;6.46;78.81
84890;BME280;75153;52.222;5.160;2024-02-23T00:57:19;98654.50;;;6.40;78.94
84890;BME280;75153;52.222;5.160;2024-02-23T00:59:52;98650.81;;;6.41;78.87
84890;BME280;75153;52.222;5.160;2024-02-23T01:02:17;98652.66;;;6.27;78.43
84890;BME280;75153;52.222;5.160;2024-02-23T01:04:43;98659.44;;;6.42;78.08
84890;BME280;75153;52.222;5.160;2024-02-23T01:07:08;98659.75;;;6.54;77.50
84890;BME280;75153;52.222;5.160;2024-02-23T01:09:33;98663.22;;;6.49;77.62
84890;BME280;75153;52.222;5.160;2024-02-23T01:11:59;98674.66;;;6.53;77.88
84890;BME280;75153;52.222;5.160;2024-02-23T01:14:25;98671.56;;;6.65;77.85
84890;BME280;75153;52.222;5.160;2024-02-23T01:16:50;98679.03;;;6.58;78.16
84890;BME280;75153;52.222;5.160;2024-02-23T01:19:15;98681.63;;;6.44;78.05
84890;BME280;75153;52.222;5.160;2024-02-23T01:21:41;98688.13;;;6.47;77.30
84890;BME280;75153;52.222;5.160;2024-02-23T01:24:06;98688.22;;;6.42;78.12
84890;BME280;75153;52.222;5.160;2024-02-23T01:26:31;98692.41;;;6.43;76.91
84890;BME280;75153;52.222;5.160;2024-02-23T01:28:57;98707.44;;;6.37;78.35
84890;BME280;75153;52.222;5.160;2024-02-23T01:31:22;98696.38;;;6.40;77.77
84890;BME280;75153;52.222;5.160;2024-02-23T01:33:47;98711.03;;;6.41;77.28
84890;BME280;75153;52.222;5.160;2024-02-23T01:36:14;98711.50;;;6.43;76.88
84890;BME280;75153;52.222;5.160;2024-02-23T01:38:40;98707.91;;;6.25;77.21
84890;BME280;75153;52.222;5.160;2024-02-23T01:41:08;98723.41;;;6.22;76.81
84890;BME280;75153;52.222;5.160;2024-02-23T01:43:33;98714.63;;;6.32;76.86
84890;BME280;75153;52.222;5.160;2024-02-23T01:45:58;98743.34;;;6.04;77.83
84890;BME280;75153;52.222;5.160;2024-02-23T01:48:24;98716.06;;;6.24;77.07
84890;BME280;75153;52.222;5.160;2024-02-23T01:50:50;98724.75;;;6.19;77.35
84890;BME280;75153;52.222;5.160;2024-02-23T01:53:16;98719.53;;;6.19;77.06
84890;BME280;75153;52.222;5.160;2024-02-23T01:55:45;98745.09;;;6.08;75.87
84890;BME280;75153;52.222;5.160;2024-02-23T01:58:11;98739.84;;;5.95;76.21
84890;BME280;75153;52.222;5.160;2024-02-23T02:00:37;98731.34;;;6.03;76.13
84890;BME280;75153;52.222;5.160;2024-02-23T02:03:02;98739.38;;;6.06;76.41
84890;BME280;75153;52.222;5.160;2024-02-23T02:05:28;98743.97;;;6.15;75.94
84890;BME280;75153;52.222;5.160;2024-02-23T02:07:55;98750.66;;;6.21;75.63
84890;BME280;75153;52.222;5.160;2024-02-23T02:10:24;98750.47;;;6.17;75.53
84890;BME280;75153;52.222;5.160;2024-02-23T02:12:50;98752.47;;;5.88;74.86
84890;BME280;75153;52.222;5.160;2024-02-23T02:15:15;98750.19;;;6.00;74.98
84890;BME280;75153;52.222;5.160;2024-02-23T02:17:41;98749.34;;;5.85;74.36
84890;BME280;75153;52.222;5.160;2024-02-23T02:20:11;98747.72;;;5.90;75.39
84890;BME280;75153;52.222;5.160;2024-02-23T02:22:37;98742.06;;;6.01;75.67
84890;BME280;75153;52.222;5.160;2024-02-23T02:25:02;98755.66;;;6.03;75.68
84890;BME280;75153;52.222;5.160;2024-02-23T02:27:27;98757.50;;;6.03;76.17
84890;BME280;75153;52.222;5.160;2024-02-23T02:29:53;98760.19;;;5.98;77.04
84890;BME280;75153;52.222;5.160;2024-02-23T02:32:18;98758.47;;;5.88;77.28
84890;BME280;75153;52.222;5.160;2024-02-23T02:34:44;98759.75;;;5.72;78.55
84890;BME280;75153;52.222;5.160;2024-02-23T02:37:09;98758.91;;;5.76;78.91
84890;BME280;75153;52.222;5.160;2024-02-23T02:39:34;98762.59;;;5.56;79.18
84890;BME280;75153;52.222;5.160;2024-02-23T02:42:01;98767.25;;;5.78;78.28
84890;BME280;75153;52.222;5.160;2024-02-23T02:44:26;98766.69;;;5.81;78.57
84890;BME280;75153;52.222;5.160;2024-02-23T02:46:56;98763.50;;;5.84;78.37
84890;BME280;75153;52.222;5.160;2024-02-23T02:49:21;98760.84;;;5.71;79.20
84890;BME280;75153;52.222;5.160;2024-02-23T02:51:46;98772.84;;;5.72;79.24
84890;BME280;75153;52.222;5.160;2024-02-23T02:54:12;98758.84;;;5.81;79.03
84890;BME280;75153;52.222;5.160;2024-02-23T02:56:47;98775.09;;;5.78;79.08
84890;BME280;75153;52.222;5.160;2024-02-23T02:59:12;98775.72;;;5.89;79.00
84890;BME280;75153;52.222;5.160;2024-02-23T03:01:39;98773.53;;;5.96;79.15
84890;BME280;75153;52.222;5.160;2024-02-23T03:04:04;98787.25;;;5.88;79.62
84890;BME280;75153;52.222;5.160;2024-02-23T03:06:29;98784.16;;;5.86;80.19
84890;BME280;75153;52.222;5.160;2024-02-23T03:08:55;98802.47;;;5.86;79.77
84890;BME280;75153;52.222;5.160;2024-02-23T03:11:20;98787.47;;;5.73;80.62
84890;BME280;75153;52.222;5.160;2024-02-23T03:13:45;98791.00;;;5.63;80.31
84890;BME280;75153;52.222;5.160;2024-02-23T03:16:17;98781.31;;;5.82;79.57
84890;BME280;75153;52.222;5.160;2024-02-23T03:18:43;98791.00;;;5.82;79.32
84890;BME280;75153;52.222;5.160;2024-02-23T03:21:09;98804.91;;;5.77;79.58
84890;BME280;75153;52.222;5.160;2024-02-23T03:23:35;98788.88;;;5.84;79.44
84890;BME280;75153;52.222;5.160;2024-02-23T03:26:01;98790.63;;;5.89;78.75
84890;BME280;75153;52.222;5.160;2024-02-23T03:28:26;98797.06;;;5.77;79.36
84890;BME280;75153;52.222;5.160;2024-02-23T03:30:52;98811.28;;;5.71;79.77
84890;BME280;75153;52.222;5.160;2024-02-23T03:33:17;98814.97;;;5.70;79.33
84890;BME280;75153;52.222;5.160;2024-02-23T03:35:43;98805.72;;;5.78;78.93
84890;BME280;75153;52.222;5.160;2024-02-23T03:38:08;98811.84;;;5.87;78.44
84890;BME280;75153;52.222;5.160;2024-02-23T03:40:33;98811.16;;;5.81;79.08
84890;BME280;75153;52.222;5.160;2024-02-23T03:43:01;98817.72;;;5.79;78.57
84890;BME280;75153;52.222;5.160;2024-02-23T03:45:27;98814.63;;;5.58;79.27
84890;BME280;75153;52.222;5.160;2024-02-23T03:47:52;98812.56;;;5.55;79.77
84890;BME280;75153;52.222;5.160;2024-02-23T03:50:18;98818.41;;;5.66;78.91
84890;BME280;75153;52.222;5.160;2024-02-23T03:52:43;98825.66;;;5.55;78.98
84890;BME280;75153;52.222;5.160;2024-02-23T03:55:09;98817.94;;;5.45;79.89
84890;BME280;75153;52.222;5.160;2024-02-23T03:57:34;98825.91;;;5.53;79.05
84890;BME280;75153;52.222;5.160;2024-02-23T03:59:59;98827.41;;;5.59;79.15
84890;BME280;75153;52.222;5.160;2024-02-23T04:02:25;98828.75;;;5.57;79.17
84890;BME280;75153;52.222;5.160;2024-02-23T04:04:50;98826.63;;;5.59;79.02
84890;BME280;75153;52.222;5.160;2024-02-23T04:07:15;98821.09;;;5.42;79.78
84890;BME280;75153;52.222;5.160;2024-02-23T04:09:41;98822.78;;;5.32;80.11
84890;BME280;75153;52.222;5.160;2024-02-23T04:12:06;98829.34;;;5.30;80.59
84890;BME280;75153;52.222;5.160;2024-02-23T04:14:32;98837.47;;;5.28;80.80
84890;BME280;75153;52.222;5.160;2024-02-23T04:17:04;98842.91;;;5.32;80.22
84890;BME280;75153;52.222;5.160;2024-02-23T04:19:29;98839.56;;;5.26;80.58
84890;BME280;75153;52.222;5.160;2024-02-23T04:21:54;98845.34;;;5.23;80.70
84890;BME280;75153;52.222;5.160;2024-02-23T04:24:20;98834.63;;;5.25;80.83
84890;BME280;75153;52.222;5.160;2024-02-23T04:26:45;98851.44;;;5.18;81.13
84890;BME280;75153;52.222;5.160;2024-02-23T04:29:11;98856.25;;;5.30;80.84
84890;BME280;75153;52.222;5.160;2024-02-23T04:31:37;98849.25;;;5.26;80.52
84890;BME280;75153;52.222;5.160;2024-02-23T04:34:03;98860.00;;;5.24;81.00
84890;BME280;75153;52.222;5.160;2024-02-23T04:36:28;98855.09;;;5.17;81.51
84890;BME280;75153;52.222;5.160;2024-02-23T04:38:54;98857.44;;;5.19;80.96
84890;BME280;75153;52.222;5.160;2024-02-23T04:41:20;98861.34;;;5.22;81.17
84890;BME280;75153;52.222;5.160;2024-02-23T04:43:49;98864.22;;;5.20;81.10
84890;BME280;75153;52.222;5.160;2024-02-23T04:46:14;98868.06;;;5.28;81.03
84890;BME280;75153;52.222;5.160;2024-02-23T04:48:40;98851.03;;;5.30;81.00
84890;BME280;75153;52.222;5.160;2024-02-23T04:51:07;98860.94;;;5.33;80.78
84890;BME280;75153;52.222;5.160;2024-02-23T04:53:37;98868.22;;;5.36;80.38
84890;BME280;75153;52.222;5.160;2024-02-23T04:56:04;98860.97;;;5.28;80.75
84890;BME280;75153;52.222;5.160;2024-02-23T04:58:29;98863.59;;;5.28;81.12
84890;BME280;75153;52.222;5.160;2024-02-23T05:00:55;98856.69;;;5.37;81.00
84890;BME280;75153;52.222;5.160;2024-02-23T05:03:20;98855.66;;;5.38;80.82
84890;BME280;75153;52.222;5.160;2024-02-23T05:05:46;98858.22;;;5.20;81.42
84890;BME280;75153;52.222;5.160;2024-02-23T05:08:11;98857.59;;;5.28;81.66
84890;BME280;75153;52.222;5.160;2024-02-23T05:10:37;98848.94;;;5.32;81.49
84890;BME280;75153;52.222;5.160;2024-02-23T05:13:03;98856.22;;;5.35;81.08
84890;BME280;75153;52.222;5.160;2024-02-23T05:15:28;98857.03;;;5.31;81.72
84890;BME280;75153;52.222;5.160;2024-02-23T05:17:54;98859.25;;;5.43;81.33
84890;BME280;75153;52.222;5.160;2024-02-23T05:20:19;98852.47;;;5.42;81.38
84890;BME280;75153;52.222;5.160;2024-02-23T05:22:45;98858.06;;;5.54;80.89
84890;BME280;75153;52.222;5.160;2024-02-23T05:25:10;98852.00;;;5.58;80.57
84890;BME280;75153;52.222;5.160;2024-02-23T05:27:35;98861.25;;;5.51;81.07
84890;BME280;75153;52.222;5.160;2024-02-23T05:30:01;98864.88;;;5.55;81.03
84890;BME280;75153;52.222;5.160;2024-02-23T05:32:26;98857.72;;;5.60;80.78
84890;BME280;75153;52.222;5.160;2024-02-23T05:34:52;98863.16;;;5.64;80.43
84890;BME280;75153;52.222;5.160;2024-02-23T05:37:19;98867.84;;;5.67;80.66
84890;BME280;75153;52.222;5.160;2024-02-23T05:39:44;98863.66;;;5.66;80.18
84890;BME280;75153;52.222;5.160;2024-02-23T05:42:11;98862.88;;;5.66;80.61
84890;BME280;75153;52.222;5.160;2024-02-23T05:44:37;98863.16;;;5.64;80.81
84890;BME280;75153;52.222;5.160;2024-02-23T05:47:02;98861.84;;;5.67;80.58
84890;BME280;75153;52.222;5.160;2024-02-23T05:49:27;98865.72;;;5.69;80.42
84890;BME280;75153;52.222;5.160;2024-02-23T05:51:53;98856.38;;;5.63;80.92
84890;BME280;75153;52.222;5.160;2024-02-23T05:54:18;98860.25;;;5.66;80.60
84890;BME280;75153;52.222;5.160;2024-02-23T05:56:44;98861.59;;;5.63;80.97
84890;BME280;75153;52.222;5.160;2024-02-23T05:59:10;98861.97;;;5.75;79.58
84890;BME280;75153;52.222;5.160;2024-02-23T06:01:36;98853.06;;;5.76;79.89
84890;BME280;75153;52.222;5.160;2024-02-23T06:04:01;98855.25;;;5.69;79.83
84890;BME280;75153;52.222;5.160;2024-02-23T06:06:28;98863.09;;;5.69;79.74
84890;BME280;75153;52.222;5.160;2024-02-23T06:08:53;98861.84;;;5.67;80.02
84890;BME280;75153;52.222;5.160;2024-02-23T06:11:19;98857.53;;;5.76;79.41
84890;BME280;75153;52.222;5.160;2024-02-23T06:13:44;98864.59;;;5.75;79.80
84890;BME280;75153;52.222;5.160;2024-02-23T06:16:10;98860.97;;;5.71;80.00
84890;BME280;75153;52.222;5.160;2024-02-23T06:18:37;98869.31;;;5.73;80.17
84890;BME280;75153;52.222;5.160;2024-02-23T06:21:11;98867.63;;;5.82;79.51
84890;BME280;75153;52.222;5.160;2024-02-23T06:23:37;98874.69;;;5.82;79.27
84890;BME280;75153;52.222;5.160;2024-02-23T06:26:02;98881.00;;;5.81;79.51
84890;BME280;75153;52.222;5.160;2024-02-23T06:28:27;98879.28;;;5.90;78.29
84890;BME280;75153;52.222;5.160;2024-02-23T06:30:53;98888.53;;;5.82;79.08
84890;BME280;75153;52.222;5.160;2024-02-23T06:33:18;98875.41;;;5.88;78.82
84890;BME280;75153;52.222;5.160;2024-02-23T06:35:44;98885.94;;;5.82;79.10
84890;BME280;75153;52.222;5.160;2024-02-23T06:38:09;98882.38;;;5.73;79.56
84890;BME280;75153;52.222;5.160;2024-02-23T06:40:35;98882.47;;;5.87;78.97
84890;BME280;75153;52.222;5.160;2024-02-23T06:43:00;98878.78;;;5.88;78.54
84890;BME280;75153;52.222;5.160;2024-02-23T06:45:25;98878.59;;;5.84;78.69
84890;BME280;75153;52.222;5.160;2024-02-23T06:47:51;98874.19;;;5.80;79.10
84890;BME280;75153;52.222;5.160;2024-02-23T06:50:16;98872.38;;;5.80;78.60
84890;BME280;75153;52.222;5.160;2024-02-23T06:52:42;98890.50;;;5.72;79.04
84890;BME280;75153;52.222;5.160;2024-02-23T06:55:07;98875.97;;;5.84;78.69
84890;BME280;75153;52.222;5.160;2024-02-23T06:57:35;98879.72;;;5.78;78.74
84890;BME280;75153;52.222;5.160;2024-02-23T07:00:02;98878.72;;;5.74;78.68
84890;BME280;75153;52.222;5.160;2024-02-23T07:02:27;98880.75;;;5.77;77.90
84890;BME280;75153;52.222;5.160;2024-02-23T07:04:56;98884.94;;;5.78;77.77
84890;BME280;75153;52.222;5.160;2024-02-23T07:07:23;98879.41;;;5.80;78.32
84890;BME280;75153;52.222;5.160;2024-02-23T07:09:49;98882.41;;;5.92;77.01
84890;BME280;75153;52.222;5.160;2024-02-23T07:12:15;98879.03;;;5.92;77.61
84890;BME280;75153;52.222;5.160;2024-02-23T07:14:40;98891.03;;;5.93;77.74
84890;BME280;75153;52.222;5.160;2024-02-23T07:17:06;98884.75;;;5.94;77.36
84890;BME280;75153;52.222;5.160;2024-02-23T07:19:33;98885.19;;;6.01;76.78
84890;BME280;75153;52.222;5.160;2024-02-23T07:21:58;98876.13;;;5.93;77.34
84890;BME280;75153;52.222;5.160;2024-02-23T07:24:23;98884.25;;;6.11;76.31
84890;BME280;75153;52.222;5.160;2024-02-23T07:26:49;98885.78;;;5.93;77.23
84890;BME280;75153;52.222;5.160;2024-02-23T07:29:14;98880.53;;;5.98;77.27
84890;BME280;75153;52.222;5.160;2024-02-23T07:31:39;98885.69;;;6.03;76.98
84890;BME280;75153;52.222;5.160;2024-02-23T07:34:05;98893.25;;;6.04;76.02
84890;BME280;75153;52.222;5.160;2024-02-23T07:36:30;98880.22;;;6.18;75.68
84890;BME280;75153;52.222;5.160;2024-02-23T07:38:56;98879.31;;;6.09;76.07
84890;BME280;75153;52.222;5.160;2024-02-23T07:41:22;98875.56;;;6.15;75.35
84890;BME280;75153;52.222;5.160;2024-02-23T07:43:47;98872.75;;;6.12;75.43
84890;BME280;75153;52.222;5.160;2024-02-23T07:46:13;98876.47;;;6.24;75.50
84890;BME280;75153;52.222;5.160;2024-02-23T07:48:38;98857.06;;;6.12;75.90
84890;BME280;75153;52.222;5.160;2024-02-23T07:51:05;98872.94;;;6.15;75.60
84890;BME280;75153;52.222;5.160;2024-02-23T07:53:30;98858.66;;;6.26;74.62
84890;BME280;75153;52.222;5.160;2024-02-23T07:55:57;98848.81;;;6.18;75.03
84890;BME280;75153;52.222;5.160;2024-02-23T07:58:26;98872.31;;;6.23;75.28
84890;BME280;75153;52.222;5.160;2024-02-23T08:00:54;98838.63;;;6.17;75.44
84890;BME280;75153;52.222;5.160;2024-02-23T08:03:19;98842.41;;;6.11;75.86
84890;BME280;75153;52.222;5.160;2024-02-23T08:05:44;98846.00;;;6.15;75.64
84890;BME280;75153;52.222;5.160;2024-02-23T08:08:10;98848.91;;;6.13;75.87
84890;BME280;75153;52.222;5.160;2024-02-23T08:10:35;98840.78;;;6.15;75.76
84890;BME280;75153;52.222;5.160;2024-02-23T08:13:00;98839.22;;;6.14;75.81
84890;BME280;75153;52.222;5.160;2024-02-23T08:15:26;98842.31;;;6.16;76.58
84890;BME280;75153;52.222;5.160;2024-02-23T08:17:51;98833.31;;;6.22;74.88
84890;BME280;75153;52.222;5.160;2024-02-23T08:20:16;98848.94;;;6.27;75.46
84890;BME280;75153;52.222;5.160;2024-02-23T08:22:42;98847.09;;;6.27;75.90
84890;BME280;75153;52.222;5.160;2024-02-23T08:25:07;98840.53;;;6.11;76.78
84890;BME280;75153;52.222;5.160;2024-02-23T08:27:33;98839.72;;;6.16;77.07
84890;BME280;75153;52.222;5.160;2024-02-23T08:29:59;98838.16;;;6.15;77.25
84890;BME280;75153;52.222;5.160;2024-02-23T08:32:24;98837.72;;;6.07;78.35
84890;BME280;75153;52.222;5.160;2024-02-23T08:34:50;98826.41;;;6.12;77.95
84890;BME280;75153;52.222;5.160;2024-02-23T08:37:18;98834.34;;;6.07;78.94
84890;BME280;75153;52.222;5.160;2024-02-23T08:39:43;98824.44;;;6.04;78.79
84890;BME280;75153;52.222;5.160;2024-02-23T08:42:09;98846.34;;;6.08;78.58
84890;BME280;75153;52.222;5.160;2024-02-23T08:44:35;98824.25;;;6.00;79.02
84890;BME280;75153;52.222;5.160;2024-02-23T08:47:00;98822.59;;;6.04;78.54
84890;BME280;75153;52.222;5.160;2024-02-23T08:49:27;98841.22;;;6.03;78.76
84890;BME280;75153;52.222;5.160;2024-02-23T08:51:52;98852.22;;;6.00;79.65
84890;BME280;75153;52.222;5.160;2024-02-23T08:54:18;98839.94;;;6.00;79.08
84890;BME280;75153;52.222;5.160;2024-02-23T08:56:43;98839.97;;;6.14;79.31
84890;BME280;75153;52.222;5.160;2024-02-23T08:59:09;98834.41;;;6.02;79.67
84890;BME280;75153;52.222;5.160;2024-02-23T09:01:35;98839.38;;;6.03;79.65
84890;BME280;75153;52.222;5.160;2024-02-23T09:04:01;98828.13;;;6.03;79.88
84890;BME280;75153;52.222;5.160;2024-02-23T09:06:27;98836.38;;;6.10;80.18
84890;BME280;75153;52.222;5.160;2024-02-23T09:08:52;98832.50;;;6.07;80.23
84890;BME280;75153;52.222;5.160;2024-02-23T09:11:17;98839.16;;;6.00;80.34
84890;BME280;75153;52.222;5.160;2024-02-23T09:13:43;98838.22;;;5.91;80.12
84890;BME280;75153;52.222;5.160;2024-02-23T09:16:08;98847.94;;;6.09;79.71
84890;BME280;75153;52.222;5.160;2024-02-23T09:18:34;98849.47;;;6.10;80.30
84890;BME280;75153;52.222;5.160;2024-02-23T09:21:00;98853.63;;;6.11;80.65
84890;BME280;75153;52.222;5.160;2024-02-23T09:23:26;98847.69;;;6.05;80.79
84890;BME280;75153;52.222;5.160;2024-02-23T09:25:51;98849.59;;;6.00;81.49
84890;BME280;75153;52.222;5.160;2024-02-23T09:28:16;98840.72;;;6.01;80.24
84890;BME280;75153;52.222;5.160;2024-02-23T09:30:42;98851.25;;;6.15;80.15
84890;BME280;75153;52.222;5.160;2024-02-23T09:33:07;98845.31;;;6.09;80.25
84890;BME280;75153;52.222;5.160;2024-02-23T09:35:33;98844.16;;;6.15;79.89
84890;BME280;75153;52.222;5.160;2024-02-23T09:37:59;98849.13;;;5.98;81.24
84890;BME280;75153;52.222;5.160;2024-02-23T09:40:24;98852.50;;;6.17;79.45
84890;BME280;75153;52.222;5.160;2024-02-23T09:42:58;98849.22;;;6.25;79.62
84890;BME280;75153;52.222;5.160;2024-02-23T09:45:26;98860.03;;;6.38;79.78
84890;BME280;75153;52.222;5.160;2024-02-23T09:47:56;98849.38;;;6.34;79.83
84890;BME280;75153;52.222;5.160;2024-02-23T09:50:23;98842.34;;;6.48;79.51
84890;BME280;75153;52.222;5.160;2024-02-23T09:52:49;98857.09;;;6.58;79.47
84890;BME280;75153;52.222;5.160;2024-02-23T09:55:21;98854.19;;;6.73;79.03
84890;BME280;75153;52.222;5.160;2024-02-23T09:57:48;98854.31;;;6.96;77.69
84890;BME280;75153;52.222;5.160;2024-02-23T10:00:17;98862.28;;;6.91;77.68
84890;BME280;75153;52.222;5.160;2024-02-23T10:02:43;98866.03;;;6.85;78.23
84890;BME280;75153;52.222;5.160;2024-02-23T10:05:10;98880.22;;;6.84;78.76
84890;BME280;75153;52.222;5.160;2024-02-23T10:07:36;98858.69;;;6.87;77.88
84890;BME280;75153;52.222;5.160;2024-02-23T10:10:01;98867.28;;;6.73;78.08
84890;BME280;75153;52.222;5.160;2024-02-23T10:12:26;98873.66;;;6.53;77.88
84890;BME280;75153;52.222;5.160;2024-02-23T10:14:52;98873.31;;;6.74;77.85
84890;BME280;75153;52.222;5.160;2024-02-23T10:17:18;98876.22;;;6.72;78.43
84890;BME280;75153;52.222;5.160;2024-02-23T10:19:45;98875.38;;;6.77;78.37
84890;BME280;75153;52.222;5.160;2024-02-23T10:22:10;98870.97;;;6.72;78.51
84890;BME280;75153;52.222;5.160;2024-02-23T10:24:37;98870.03;;;6.68;78.61
84890;BME280;75153;52.222;5.160;2024-02-23T10:27:02;98879.09;;;6.57;79.26
84890;BME280;75153;52.222;5.160;2024-02-23T10:29:28;98887.00;;;6.71;78.80
84890;BME280;75153;52.222;5.160;2024-02-23T10:31:56;98898.44;;;6.75;79.02
84890;BME280;75153;52.222;5.160;2024-02-23T10:34:24;98896.63;;;6.89;78.56
84890;BME280;75153;52.222;5.160;2024-02-23T10:36:49;98886.84;;;6.95;78.41
84890;BME280;75153;52.222;5.160;2024-02-23T10:39:17;98887.41;;;6.92;78.41
84890;BME280;75153;52.222;5.160;2024-02-23T10:41:56;98894.50;;;6.91;78.42
84890;BME280;75153;52.222;5.160;2024-02-23T10:44:23;98902.28;;;6.96;77.74
84890;BME280;75153;52.222;5.160;2024-02-23T10:46:50;98903.16;;;7.06;77.10
84890;BME280;75153;52.222;5.160;2024-02-23T10:49:17;98911.50;;;6.94;77.70
84890;BME280;75153;52.222;5.160;2024-02-23T10:51:46;98903.25;;;7.01;77.94
84890;BME280;75153;52.222;5.160;2024-02-23T10:54:14;98908.66;;;7.04;77.96
84890;BME280;75153;52.222;5.160;2024-02-23T10:56:39;98915.59;;;7.14;77.15
84890;BME280;75153;52.222;5.160;2024-02-23T10:59:07;98910.63;;;7.12;77.55
84890;BME280;75153;52.222;5.160;2024-02-23T11:01:34;98918.31;;;7.23;77.67
84890;BME280;75153;52.222;5.160;2024-02-23T11:04:01;98915.88;;;7.26;77.24
84890;BME280;75153;52.222;5.160;2024-02-23T11:06:27;98924.91;;;7.34;76.67
84890;BME280;75153;52.222;5.160;2024-02-23T11:08:53;98924.63;;;7.49;75.20
84890;BME280;75153;52.222;5.160;2024-02-23T11:11:18;98904.50;;;7.58;75.25
84890;BME280;75153;52.222;5.160;2024-02-23T11:13:44;98927.34;;;7.44;75.75
84890;BME280;75153;52.222;5.160;2024-02-23T11:16:11;98911.81;;;7.48;75.66
84890;BME280;75153;52.222;5.160;2024-02-23T11:18:38;98923.16;;;7.29;75.61
84890;BME280;75153;52.222;5.160;2024-02-23T11:21:04;98912.19;;;7.41;74.84
84890;BME280;75153;52.222;5.160;2024-02-23T11:23:48;98920.53;;;7.43;74.89
84890;BME280;75153;52.222;5.160;2024-02-23T11:26:15;98917.66;;;7.45;75.03
84890;BME280;75153;52.222;5.160;2024-02-23T11:28:47;98917.25;;;7.65;74.63
84890;BME280;75153;52.222;5.160;2024-02-23T11:31:14;98934.50;;;7.66;75.14
84890;BME280;75153;52.222;5.160;2024-02-23T11:33:48;98919.97;;;7.46;74.06
84890;BME280;75153;52.222;5.160;2024-02-23T11:36:22;98923.34;;;7.74;73.96
84890;BME280;75153;52.222;5.160;2024-02-23T11:38:47;98927.03;;;8.09;73.79
84890;BME280;75153;52.222;5.160;2024-02-23T11:41:13;98926.03;;;7.83;73.98
84890;BME280;75153;52.222;5.160;2024-02-23T11:43:41;98924.25;;;8.06;73.58
84890;BME280;75153;52.222;5.160;2024-02-23T11:46:07;98933.56;;;8.12;72.63
84890;BME280;75153;52.222;5.160;2024-02-23T11:48:32;98939.41;;;8.09;73.45
84890;BME280;75153;52.222;5.160;2024-02-23T11:50:58;98945.56;;;8.04;72.46
84890;BME280;75153;52.222;5.160;2024-02-23T11:53:23;98942.63;;;7.92;72.83
84890;BME280;75153;52.222;5.160;2024-02-23T11:55:50;98966.16;;;7.97;73.39
84890;BME280;75153;52.222;5.160;2024-02-23T11:58:17;98953.88;;;8.06;72.46
84890;BME280;75153;52.222;5.160;2024-02-23T12:00:43;98965.22;;;7.93;73.61
84890;BME280;75153;52.222;5.160;2024-02-23T12:03:09;98957.78;;;7.95;72.40
84890;BME280;75153;52.222;5.160;2024-02-23T12:05:35;98962.09;;;7.91;72.28
84890;BME280;75153;52.222;5.160;2024-02-23T12:08:01;98956.06;;;8.04;72.93
84890;BME280;75153;52.222;5.160;2024-02-23T12:10:26;98958.09;;;8.07;71.98
84890;BME280;75153;52.222;5.160;2024-02-23T12:12:53;98957.19;;;8.12;72.79
84890;BME280;75153;52.222;5.160;2024-02-23T12:15:19;98943.19;;;8.17;72.35
84890;BME280;75153;52.222;5.160;2024-02-23T12:17:48;98958.28;;;7.97;73.24
84890;BME280;75153;52.222;5.160;2024-02-23T12:20:13;98953.59;;;8.08;71.82
84890;BME280;75153;52.222;5.160;2024-02-23T12:22:40;98955.53;;;8.16;71.64
84890;BME280;75153;52.222;5.160;2024-02-23T12:25:06;98956.81;;;8.05;72.50
84890;BME280;75153;52.222;5.160;2024-02-23T12:27:32;98968.09;;;8.05;72.97
84890;BME280;75153;52.222;5.160;2024-02-23T12:29:57;98979.09;;;8.07;72.12
84890;BME280;75153;52.222;5.160;2024-02-23T12:32:23;98972.66;;;8.14;72.23
84890;BME280;75153;52.222;5.160;2024-02-23T12:34:48;98974.75;;;8.39;71.60
84890;BME280;75153;52.222;5.160;2024-02-23T12:37:17;98980.19;;;8.43;72.00
84890;BME280;75153;52.222;5.160;2024-02-23T12:39:44;98973.88;;;8.66;71.15
84890;BME280;75153;52.222;5.160;2024-02-23T12:42:09;98970.22;;;8.76;71.27
84890;BME280;75153;52.222;5.160;2024-02-23T12:44:34;98966.63;;;8.94;71.20
84890;BME280;75153;52.222;5.160;2024-02-23T12:47:00;98978.19;;;9.16;68.90
84890;BME280;75153;52.222;5.160;2024-02-23T12:49:25;98987.56;;;9.08;69.68
84890;BME280;75153;52.222;5.160;2024-02-23T12:51:51;98982.19;;;9.13;69.70
84890;BME280;75153;52.222;5.160;2024-02-23T12:54:16;98998.41;;;9.07;68.74
84890;BME280;75153;52.222;5.160;2024-02-23T12:56:41;98987.78;;;9.12;68.50
84890;BME280;75153;52.222;5.160;2024-02-23T12:59:07;98999.47;;;9.06;67.71
84890;BME280;75153;52.222;5.160;2024-02-23T13:01:35;98993.06;;;8.89;68.63
84890;BME280;75153;52.222;5.160;2024-02-23T13:04:03;98994.72;;;8.85;69.38